Time;durP1;ratioP1;P1;durP2;ratioP2;P2;SDS_P1;SDS_P2;PMS_P1;PMS_P2;Temp;Humidity;BMP_temperature;BMP_pressure;BME280_temperature;BME280_humidity;BME280_pressure;Samples;Min_cycle;Max_cycle;Signal;HPM_P1;HPM_P2
2023/04/09 00:00:40;;;;;;;;;;;;;;;18.00;55.57;98878.44;2085735;28;20470;-47
2023/04/09 00:01:41;;;;;;;;;;;;;;;18.00;55.64;98878.44;2085950;28;19940;-48
2023/04/09 00:02:42;;;;;;;;;;;;;;;18.00;55.67;98881.94;2081268;28;20406;-49
2023/04/09 00:03:43;;;;;;;;;;;;;;;17.98;55.47;98878.59;2083594;28;20005;-45
2023/04/09 00:04:44;;;;;;;;;;;;;;;17.97;55.48;98882.34;2075549;28;19928;-46
2023/04/09 00:05:45;;;;;;;;;;;;;;;17.97;55.66;98879.66;2083728;28;21095;-49
2023/04/09 00:06:46;;;;;;;;;;;;;;;17.97;55.51;98879.66;2078374;28;19944;-47
2023/04/09 00:07:47;;;;;;;;;;;;;;;17.96;55.33;98877.97;2085581;28;20001;-47
2023/04/09 00:08:47;;;;;;;;;;;;;;;17.96;55.50;98880.66;2086977;28;19985;-46
2023/04/09 00:09:49;;;;;;;;;;;;;;;17.95;55.59;98884.38;2088876;28;19932;-45
2023/04/09 00:10:49;;;;;;;;;;;;;;;17.96;55.58;98880.66;2081830;28;20001;-45
2023/04/09 00:11:51;;;;;;;;;;;;;;;17.95;55.49;98873.63;2079806;28;20358;-46
2023/04/09 00:12:51;;;;;;;;;;;;;;;17.97;55.47;98887.69;2073450;28;19939;-44
2023/04/09 00:13:53;;;;;;;;;;;;;;;17.95;55.34;98881.69;2073785;28;19932;-46
2023/04/09 00:14:54;;;;;;;;;;;;;;;17.95;55.33;98878.19;2081874;28;19940;-46
2023/04/09 00:15:57;;;;;;;;;;;;;;;17.95;55.41;98883.53;2083240;28;19933;-45
2023/04/09 00:16:57;;;;;;;;;;;;;;;17.94;55.35;98879.19;2086433;28;19933;-46
2023/04/09 00:17:59;;;;;;;;;;;;;;;17.94;55.42;98882.72;2086391;28;19924;-45
2023/04/09 00:18:59;;;;;;;;;;;;;;;17.93;55.41;98877.53;2086262;28;20019;-45
2023/04/09 00:20:01;;;;;;;;;;;;;;;17.92;55.63;98879.38;2085327;28;19925;-50
2023/04/09 00:21:01;;;;;;;;;;;;;;;17.93;55.32;98875.66;2084298;28;20387;-48
2023/04/09 00:22:03;;;;;;;;;;;;;;;17.93;55.68;98880.22;2077740;28;19960;-50
2023/04/09 00:23:03;;;;;;;;;;;;;;;17.91;55.37;98880.38;2083781;28;20520;-48
2023/04/09 00:24:05;;;;;;;;;;;;;;;17.89;55.38;98874.41;2081591;28;19932;-45
2023/04/09 00:25:06;;;;;;;;;;;;;;;17.90;55.53;98880.59;2085505;28;20398;-45
2023/04/09 00:26:08;;;;;;;;;;;;;;;17.91;55.47;98876.88;2083707;27;19925;-48
2023/04/09 00:27:08;;;;;;;;;;;;;;;17.90;55.46;98878.75;2082744;28;19928;-49
2023/04/09 00:28:09;;;;;;;;;;;;;;;17.90;55.22;98881.44;2081409;28;19932;-50
2023/04/09 00:29:10;;;;;;;;;;;;;;;17.91;55.36;98875.03;2081510;28;20452;-49
2023/04/09 00:30:11;;;;;;;;;;;;;;;17.88;55.36;98878.09;2084289;28;19932;-50
2023/04/09 00:31:13;;;;;;;;;;;;;;;17.87;55.48;98879.13;2081587;28;19932;-50
2023/04/09 00:32:15;;;;;;;;;;;;;;;17.87;55.52;98884.50;2079340;28;19948;-47
2023/04/09 00:33:15;;;;;;;;;;;;;;;17.86;55.59;98880.16;2083306;28;20016;-48
2023/04/09 00:34:17;;;;;;;;;;;;;;;17.86;55.25;98878.31;2079886;28;19940;-47
2023/04/09 00:35:17;;;;;;;;;;;;;;;17.87;55.57;98876.44;2080513;28;19932;-47
2023/04/09 00:36:19;;;;;;;;;;;;;;;17.88;55.36;98880.78;2082465;28;20268;-48
2023/04/09 00:37:19;;;;;;;;;;;;;;;17.89;55.25;98879.78;2083415;28;20891;-48
2023/04/09 00:38:20;;;;;;;;;;;;;;;17.86;55.38;98878.31;2081647;28;20013;-50
2023/04/09 00:39:21;;;;;;;;;;;;;;;17.86;55.54;98882.84;2079075;28;20352;-50
2023/04/09 00:40:22;;;;;;;;;;;;;;;17.85;55.35;98881.16;2081454;28;19931;-48
2023/04/09 00:41:23;;;;;;;;;;;;;;;17.86;55.32;98882.84;2083067;28;20665;-46
2023/04/09 00:42:24;;;;;;;;;;;;;;;17.84;55.33;98883.03;2083067;28;20014;-45
2023/04/09 00:43:25;;;;;;;;;;;;;;;17.84;55.25;98877.66;2080974;28;19928;-45
2023/04/09 00:44:27;;;;;;;;;;;;;;;17.84;55.44;98887.56;2082561;28;19933;-48
2023/04/09 00:45:27;;;;;;;;;;;;;;;17.84;55.46;98896.44;2077715;28;20128;-46
2023/04/09 00:46:31;;;;;;;;;;;;;;;17.84;55.42;98884.88;2082177;28;20370;-47
2023/04/09 00:47:33;;;;;;;;;;;;;;;17.84;55.30;98890.25;2082274;28;20001;-47
2023/04/09 00:48:34;;;;;;;;;;;;;;;17.84;55.34;98882.22;2082291;28;19932;-47
2023/04/09 00:49:35;;;;;;;;;;;;;;;17.84;55.25;98887.56;2079562;28;20032;-50
2023/04/09 00:50:36;;;;;;;;;;;;;;;17.82;55.47;98885.06;2081104;28;19932;-51
2023/04/09 00:51:37;;;;;;;;;;;;;;;17.81;55.40;98887.97;2080920;28;19998;-50
2023/04/09 00:52:39;;;;;;;;;;;;;;;17.80;55.32;98884.44;2080360;28;20323;-50
2023/04/09 00:53:39;;;;;;;;;;;;;;;17.81;55.20;98879.91;2083287;28;20936;-46
2023/04/09 00:54:41;;;;;;;;;;;;;;;17.81;55.09;98883.41;2083339;28;19971;-48
2023/04/09 00:55:41;;;;;;;;;;;;;;;17.80;55.30;98881.75;2084205;28;19959;-46
2023/04/09 00:56:43;;;;;;;;;;;;;;;17.81;55.22;98885.28;2079810;28;19982;-49
2023/04/09 00:57:44;;;;;;;;;;;;;;;17.78;55.29;98874.91;2083295;28;19936;-52
2023/04/09 00:58:45;;;;;;;;;;;;;;;17.80;55.25;98883.59;2080489;28;20409;-46
2023/04/09 00:59:46;;;;;;;;;;;;;;;17.77;55.26;98878.59;2084903;28;19928;-47
2023/04/09 01:00:47;;;;;;;;;;;;;;;17.78;55.31;98878.44;2087722;28;20009;-48
2023/04/09 01:01:49;;;;;;;;;;;;;;;17.78;55.20;98874.91;2086232;28;20645;-45
2023/04/09 01:02:51;;;;;;;;;;;;;;;17.75;55.36;98884.16;2082587;28;19928;-49
2023/04/09 01:03:52;;;;;;;;;;;;;;;17.76;55.33;98877.75;2080541;28;19963;-45
2023/04/09 01:04:53;;;;;;;;;;;;;;;17.75;55.19;98875.28;2085562;28;19929;-49
2023/04/09 01:06:00;;;;;;;;;;;;;;;17.77;55.24;98881.25;2080936;28;20526;-46
2023/04/09 01:07:04;;;;;;;;;;;;;;;17.75;55.25;98881.47;2078452;28;19936;-49
2023/04/09 01:08:10;;;;;;;;;;;;;;;17.76;55.16;98885.81;2082462;28;19939;-51
2023/04/09 01:09:14;;;;;;;;;;;;;;;17.74;55.30;98882.47;2080966;28;19929;-48
2023/04/09 01:10:19;;;;;;;;;;;;;;;17.75;55.16;98883.34;2083944;28;19925;-49
2023/04/09 01:11:26;;;;;;;;;;;;;;;17.73;55.32;98885.38;2085399;28;19929;-48
2023/04/09 01:12:32;;;;;;;;;;;;;;;17.74;55.47;98884.34;2087344;28;19956;-49
2023/04/09 01:13:39;;;;;;;;;;;;;;;17.74;55.05;98882.47;2083273;28;20008;-52
2023/04/09 01:14:44;;;;;;;;;;;;;;;17.72;55.22;98884.53;2082519;28;19924;-45
2023/04/09 01:15:48;;;;;;;;;;;;;;;17.72;55.17;98891.75;2084136;28;19928;-50
2023/04/09 01:18:19;;;;;;;;;;;;;;;17.73;55.32;98893.41;2081975;28;21604;-46
2023/04/09 01:19:28;;;;;;;;;;;;;;;17.71;55.24;98896.28;2085404;28;19955;-53
2023/04/09 01:20:33;;;;;;;;;;;;;;;17.71;55.33;98890.09;2083950;28;20830;-53
2023/04/09 01:21:34;;;;;;;;;;;;;;;17.69;54.99;98894.81;2087624;28;19928;-49
2023/04/09 01:22:42;;;;;;;;;;;;;;;17.70;55.12;98896.47;2087252;28;19924;-45
2023/04/09 01:23:46;;;;;;;;;;;;;;;17.69;55.27;98905.53;2084878;28;19986;-48
2023/04/09 01:24:56;;;;;;;;;;;;;;;17.69;55.15;98900.16;2084762;28;20375;-47
2023/04/09 01:26:02;;;;;;;;;;;;;;;17.69;55.14;98903.72;2081259;28;19933;-51
2023/04/09 01:27:05;;;;;;;;;;;;;;;17.68;55.38;98906.56;2079027;28;19929;-51
2023/04/09 01:28:17;;;;;;;;;;;;;;;17.69;55.17;98910.91;2079938;28;20589;-47
2023/04/09 01:29:20;;;;;;;;;;;;;;;17.69;55.16;98913.59;2083266;28;19935;-47
2023/04/09 01:30:20;;;;;;;;;;;;;;;17.67;55.18;98910.28;2084104;28;19951;-48
2023/04/09 01:31:26;;;;;;;;;;;;;;;17.65;55.43;98905.91;2085698;28;20499;-45
2023/04/09 01:32:31;;;;;;;;;;;;;;;17.67;55.16;98907.59;2083438;28;19982;-52
2023/04/09 01:33:33;;;;;;;;;;;;;;;17.69;55.31;98910.91;2083255;28;19947;-47
2023/04/09 01:34:34;;;;;;;;;;;;;;;17.66;55.15;98906.75;2080992;28;19933;-47
2023/04/09 01:35:35;;;;;;;;;;;;;;;17.66;55.20;98906.75;2080825;28;19946;-49
2023/04/09 01:36:37;;;;;;;;;;;;;;;17.66;55.36;98901.38;2085189;28;19994;-45
2023/04/09 01:37:39;;;;;;;;;;;;;;;17.64;55.18;98896.22;2083642;28;19924;-45
2023/04/09 01:38:41;;;;;;;;;;;;;;;17.64;55.29;98898.91;2077899;28;20402;-48
2023/04/09 01:39:42;;;;;;;;;;;;;;;17.64;55.19;98898.09;2081087;28;19938;-48
2023/04/09 01:40:43;;;;;;;;;;;;;;;17.65;55.07;98899.72;2081268;28;20011;-50
2023/04/09 01:41:45;;;;;;;;;;;;;;;17.65;55.35;98905.09;2084428;28;19928;-50
2023/04/09 01:42:47;;;;;;;;;;;;;;;17.63;54.97;98899.94;2084760;28;19935;-47
2023/04/09 01:43:50;;;;;;;;;;;;;;;17.63;55.18;98905.31;2081465;28;19929;-47
2023/04/09 01:44:52;;;;;;;;;;;;;;;17.63;54.99;98904.44;2080709;28;19972;-49
2023/04/09 01:45:53;;;;;;;;;;;;;;;17.63;55.15;98901.75;2083529;28;20373;-48
2023/04/09 01:46:54;;;;;;;;;;;;;;;17.65;55.19;98899.72;2080534;28;19994;-45
2023/04/09 01:47:56;;;;;;;;;;;;;;;17.63;55.19;98908.00;2082609;28;20370;-46
2023/04/09 01:48:57;;;;;;;;;;;;;;;17.62;55.19;98900.94;2086759;28;19925;-45
2023/04/09 01:49:59;;;;;;;;;;;;;;;17.62;55.07;98900.94;2080111;28;19928;-50
2023/04/09 01:51:00;;;;;;;;;;;;;;;17.62;55.10;98900.94;2081209;28;20432;-47
2023/04/09 01:52:01;;;;;;;;;;;;;;;17.61;55.08;98898.47;2080194;28;19929;-45
2023/04/09 01:53:02;;;;;;;;;;;;;;;17.61;55.19;98899.28;2081460;28;19928;-48
2023/04/09 01:54:04;;;;;;;;;;;;;;;17.62;55.19;98900.94;2082485;28;20080;-45
2023/04/09 01:55:05;;;;;;;;;;;;;;;17.61;55.15;98901.16;2077469;28;20078;-48
2023/04/09 01:56:07;;;;;;;;;;;;;;;17.59;55.04;98906.69;2080773;28;19932;-49
2023/04/09 01:57:07;;;;;;;;;;;;;;;17.59;55.33;98904.00;2081475;28;19928;-47
2023/04/09 01:58:08;;;;;;;;;;;;;;;17.59;55.23;98900.50;2079264;28;19990;-46
2023/04/09 01:59:11;;;;;;;;;;;;;;;17.55;55.09;98900.06;2080166;28;22030;-48
2023/04/09 02:00:13;;;;;;;;;;;;;;;17.58;55.19;98898.84;2084442;28;19932;-48
2023/04/09 02:01:19;;;;;;;;;;;;;;;17.57;55.20;98905.22;2083541;28;19953;-50
2023/04/09 02:02:35;;;;;;;;;;;;;;;17.56;55.19;98901.72;2080067;28;19986;-49
2023/04/09 02:03:39;;;;;;;;;;;;;;;17.56;54.97;98899.03;2084328;28;21037;-48
2023/04/09 02:04:42;;;;;;;;;;;;;;;17.56;55.16;98907.06;2081405;28;20046;-47
2023/04/09 02:05:46;;;;;;;;;;;;;;;17.57;55.12;98906.03;2083548;28;19929;-49
2023/04/09 02:06:51;;;;;;;;;;;;;;;17.56;55.11;98903.56;2085422;28;19932;-48
2023/04/09 02:07:54;;;;;;;;;;;;;;;17.56;55.15;98904.38;2085274;28;19936;-47
2023/04/09 02:08:57;;;;;;;;;;;;;;;17.56;55.10;98900.88;2081540;28;19924;-50
2023/04/09 02:09:59;;;;;;;;;;;;;;;17.55;55.21;98905.44;2081194;28;19932;-44
2023/04/09 02:11:02;;;;;;;;;;;;;;;17.55;54.83;98905.44;2083188;28;20051;-45
2023/04/09 02:12:05;;;;;;;;;;;;;;;17.55;55.27;98907.25;2086557;28;20015;-48
2023/04/09 02:13:09;;;;;;;;;;;;;;;17.54;55.03;98898.38;2086796;28;19935;-46
2023/04/09 02:14:12;;;;;;;;;;;;;;;17.53;54.95;98899.41;2081224;28;19933;-46
2023/04/09 02:15:13;;;;;;;;;;;;;;;17.56;55.07;98906.25;2080941;28;19928;-48
2023/04/09 02:16:15;;;;;;;;;;;;;;;17.53;54.98;98899.41;2073754;28;20375;-51
2023/04/09 02:17:16;;;;;;;;;;;;;;;17.55;55.04;98905.44;2082228;28;19924;-49
2023/04/09 02:18:22;;;;;;;;;;;;;;;17.53;55.16;98907.47;2080090;28;19929;-50
2023/04/09 02:19:23;;;;;;;;;;;;;;;17.52;55.10;98900.41;2082806;28;19925;-49
2023/04/09 02:20:24;;;;;;;;;;;;;;;17.51;55.11;98906.81;2082061;28;19929;-50
2023/04/09 02:21:25;;;;;;;;;;;;;;;17.51;55.03;98900.63;2080662;28;20298;-45
2023/04/09 02:22:26;;;;;;;;;;;;;;;17.52;55.26;98899.59;2083817;28;19940;-49
2023/04/09 02:23:27;;;;;;;;;;;;;;;17.53;55.04;98903.94;2083560;28;20424;-48
2023/04/09 02:24:28;;;;;;;;;;;;;;;17.51;55.06;98914.84;2080078;28;19966;-48
2023/04/09 02:25:30;;;;;;;;;;;;;;;17.52;55.02;98910.31;2082280;28;20796;-49
2023/04/09 02:26:30;;;;;;;;;;;;;;;17.51;55.04;98905.97;2082032;28;20019;-50
2023/04/09 02:27:31;;;;;;;;;;;;;;;17.51;55.15;98912.16;2081882;28;19946;-48
2023/04/09 02:28:32;;;;;;;;;;;;;;;17.50;55.09;98905.16;2081157;28;19925;-49
2023/04/09 02:29:35;;;;;;;;;;;;;;;17.50;55.12;98913.19;2081336;28;19997;-49
2023/04/09 02:30:35;;;;;;;;;;;;;;;17.50;54.88;98904.34;2080042;28;20013;-51
2023/04/09 02:31:37;;;;;;;;;;;;;;;17.49;54.83;98905.34;2085075;28;20037;-48
2023/04/09 02:32:37;;;;;;;;;;;;;;;17.49;55.25;98906.16;2083844;28;20012;-51
2023/04/09 02:33:39;;;;;;;;;;;;;;;17.50;55.05;98907.84;2086340;28;19929;-45
2023/04/09 02:34:39;;;;;;;;;;;;;;;17.47;55.19;98902.84;2086655;28;19938;-50
2023/04/09 02:35:41;;;;;;;;;;;;;;;17.48;55.02;98907.19;2082320;28;20296;-48
2023/04/09 02:36:41;;;;;;;;;;;;;;;17.46;54.89;98906.53;2080807;28;19925;-47
2023/04/09 02:37:42;;;;;;;;;;;;;;;17.46;54.86;98911.91;2084573;28;19983;-50
2023/04/09 02:38:43;;;;;;;;;;;;;;;17.45;55.18;98907.56;2083960;28;19985;-50
2023/04/09 02:39:44;;;;;;;;;;;;;;;17.45;55.21;98907.56;2078361;28;19928;-49
2023/04/09 02:40:45;;;;;;;;;;;;;;;17.45;55.00;98907.56;2083739;28;19966;-45
2023/04/09 02:41:46;;;;;;;;;;;;;;;17.45;54.93;98910.25;2082577;28;19966;-47
2023/04/09 02:42:47;;;;;;;;;;;;;;;17.46;55.02;98900.34;2081978;28;19937;-47
2023/04/09 02:43:48;;;;;;;;;;;;;;;17.46;55.10;98909.22;2081117;28;20287;-46
2023/04/09 02:44:50;;;;;;;;;;;;;;;17.46;54.79;98908.41;2085658;28;19929;-46
2023/04/09 02:45:51;;;;;;;;;;;;;;;17.44;54.95;98908.59;2082228;28;19928;-48
2023/04/09 02:46:52;;;;;;;;;;;;;;;17.43;55.02;98906.91;2084427;28;19936;-45
2023/04/09 02:47:53;;;;;;;;;;;;;;;17.44;55.08;98908.59;2078061;28;20457;-50
2023/04/09 02:48:54;;;;;;;;;;;;;;;17.44;55.07;98903.25;2084450;28;19932;-50
2023/04/09 02:49:55;;;;;;;;;;;;;;;17.42;55.02;98906.09;2080145;28;19995;-47
2023/04/09 02:50:56;;;;;;;;;;;;;;;17.43;55.12;98905.06;2084852;28;19929;-50
2023/04/09 02:51:57;;;;;;;;;;;;;;;17.42;55.04;98902.59;2084365;28;20741;-48
2023/04/09 02:52:57;;;;;;;;;;;;;;;17.41;55.22;98906.28;2085625;28;19994;-47
2023/04/09 02:53:59;;;;;;;;;;;;;;;17.41;55.09;98903.59;2085555;28;20345;-45
2023/04/09 02:54:59;;;;;;;;;;;;;;;17.39;55.23;98901.13;2080605;28;20040;-46
2023/04/09 02:56:01;;;;;;;;;;;;;;;17.42;55.09;98905.28;2081840;28;19940;-50
2023/04/09 02:57:02;;;;;;;;;;;;;;;17.40;55.09;98901.94;2084129;28;19928;-48
2023/04/09 02:58:03;;;;;;;;;;;;;;;17.40;55.24;98901.94;2078868;28;19974;-49
2023/04/09 02:59:03;;;;;;;;;;;;;;;17.40;55.09;98904.63;2085926;28;19994;-46
2023/04/09 03:00:07;;;;;;;;;;;;;;;17.40;55.06;98901.94;2079004;28;21064;-47
2023/04/09 03:01:08;;;;;;;;;;;;;;;17.39;55.05;98911.84;2083978;28;20909;-47
2023/04/09 03:02:09;;;;;;;;;;;;;;;17.39;55.00;98902.97;2085012;28;19940;-49
2023/04/09 03:03:09;;;;;;;;;;;;;;;17.39;55.24;98902.97;2086720;28;20546;-46
2023/04/09 03:04:11;;;;;;;;;;;;;;;17.39;55.07;98901.13;2082860;28;19962;-49
2023/04/09 03:05:11;;;;;;;;;;;;;;;17.39;54.98;98900.28;2086507;28;19925;-46
2023/04/09 03:06:13;;;;;;;;;;;;;;;17.39;54.92;98902.97;2086032;28;19928;-46
2023/04/09 03:07:13;;;;;;;;;;;;;;;17.39;55.08;98900.28;2085479;28;19966;-46
2023/04/09 03:08:15;;;;;;;;;;;;;;;17.40;54.88;98897.41;2086362;28;20365;-48
2023/04/09 03:09:15;;;;;;;;;;;;;;;17.38;55.03;98899.47;2087877;28;21682;-47
2023/04/09 03:10:17;;;;;;;;;;;;;;;17.37;54.87;98892.41;2086025;28;19929;-48
2023/04/09 03:11:17;;;;;;;;;;;;;;;17.37;54.91;98900.47;2088223;28;19935;-48
2023/04/09 03:12:19;;;;;;;;;;;;;;;17.37;55.08;98896.97;2085453;28;20252;-48
2023/04/09 03:13:19;;;;;;;;;;;;;;;17.36;55.02;98896.13;2086487;28;22965;-49
2023/04/09 03:14:21;;;;;;;;;;;;;;;17.36;54.93;98898.00;2084896;28;19997;-49
2023/04/09 03:15:23;;;;;;;;;;;;;;;17.36;54.94;98898.00;2088456;28;19924;-45
2023/04/09 03:16:24;;;;;;;;;;;;;;;17.37;54.83;98907.69;2085791;28;19995;-46
2023/04/09 03:17:26;;;;;;;;;;;;;;;17.35;54.94;98905.19;2089589;28;20382;-48
2023/04/09 03:18:27;;;;;;;;;;;;;;;17.36;54.76;98904.19;2086331;28;19933;-49
2023/04/09 03:19:29;;;;;;;;;;;;;;;17.37;54.93;98903.16;2082419;28;19925;-46
2023/04/09 03:20:31;;;;;;;;;;;;;;;17.37;55.07;98905.00;2081200;28;19933;-45
2023/04/09 03:21:32;;;;;;;;;;;;;;;17.35;54.93;98909.72;2083156;28;19954;-50
2023/04/09 03:22:35;;;;;;;;;;;;;;;17.34;54.79;98913.44;2083604;28;19962;-49
2023/04/09 03:23:36;;;;;;;;;;;;;;;17.33;55.07;98909.91;2086999;28;19932;-48
2023/04/09 03:24:37;;;;;;;;;;;;;;;17.33;55.07;98911.78;2081690;28;19941;-48
2023/04/09 03:25:38;;;;;;;;;;;;;;;17.33;55.11;98911.78;2086436;28;19928;-45
2023/04/09 03:26:39;;;;;;;;;;;;;;;17.32;55.08;98915.44;2083506;27;19936;-51
2023/04/09 03:27:40;;;;;;;;;;;;;;;17.34;55.10;98921.47;2081084;28;20363;-47
2023/04/09 03:28:41;;;;;;;;;;;;;;;17.32;54.96;98910.91;2081912;28;20019;-48
2023/04/09 03:29:41;;;;;;;;;;;;;;;17.33;54.99;98917.97;2078384;28;20321;-46
2023/04/09 03:30:44;;;;;;;;;;;;;;;17.32;54.93;98918.13;2081789;28;19933;-50
2023/04/09 03:31:45;;;;;;;;;;;;;;;17.32;54.88;98910.09;2086614;28;19929;-47
2023/04/09 03:32:46;;;;;;;;;;;;;;;17.31;54.95;98916.50;2084920;28;19933;-47
2023/04/09 03:33:47;;;;;;;;;;;;;;;17.32;55.07;98916.28;2085884;28;19951;-48
2023/04/09 03:34:48;;;;;;;;;;;;;;;17.32;54.86;98908.25;2087407;28;20354;-47
2023/04/09 03:35:49;;;;;;;;;;;;;;;17.33;54.92;98907.25;2086444;28;20011;-48
2023/04/09 03:36:50;;;;;;;;;;;;;;;17.33;54.68;98909.09;2083539;28;19932;-50
2023/04/09 03:37:51;;;;;;;;;;;;;;;17.32;55.09;98907.41;2083645;28;20522;-46
2023/04/09 03:38:52;;;;;;;;;;;;;;;17.32;54.88;98904.72;2083842;28;19929;-51
2023/04/09 03:39:52;;;;;;;;;;;;;;;17.30;54.88;98902.25;2083618;28;19929;-47
2023/04/09 03:40:55;;;;;;;;;;;;;;;17.30;55.11;98904.94;2081340;28;19967;-50
2023/04/09 03:41:57;;;;;;;;;;;;;;;17.30;54.86;98906.75;2084090;28;19986;-50
2023/04/09 03:42:58;;;;;;;;;;;;;;;17.29;54.94;98905.94;2088614;28;20440;-46
2023/04/09 03:43:58;;;;;;;;;;;;;;;17.30;54.93;98904.94;2084744;28;20607;-46
2023/04/09 03:45:00;;;;;;;;;;;;;;;17.30;54.90;98901.41;2088973;28;19986;-49
2023/04/09 03:46:10;;;;;;;;;;;;;;;17.29;54.83;98905.94;2089277;28;20426;-47
2023/04/09 03:47:12;;;;;;;;;;;;;;;17.28;54.76;98903.47;2087105;28;19924;-50
2023/04/09 03:48:12;;;;;;;;;;;;;;;17.29;54.82;98907.78;2084266;28;19941;-48
2023/04/09 03:49:13;;;;;;;;;;;;;;;17.28;55.13;98904.28;2085782;28;19947;-46
2023/04/09 03:50:14;;;;;;;;;;;;;;;17.28;55.13;98909.66;2088567;28;19929;-49
2023/04/09 03:51:16;;;;;;;;;;;;;;;17.28;55.01;98906.97;2087490;28;19928;-46
2023/04/09 03:52:16;;;;;;;;;;;;;;;17.27;55.04;98901.78;2087091;28;19933;-49
2023/04/09 03:53:18;;;;;;;;;;;;;;;17.27;55.05;98901.78;2086768;28;20547;-50
2023/04/09 03:54:18;;;;;;;;;;;;;;;17.26;54.89;98906.31;2082554;28;20516;-47
2023/04/09 03:55:20;;;;;;;;;;;;;;;17.28;55.10;98906.13;2084491;28;20053;-46
2023/04/09 03:56:21;;;;;;;;;;;;;;;17.27;54.97;98902.59;2085877;28;20456;-48
2023/04/09 03:57:22;;;;;;;;;;;;;;;17.25;55.05;98904.66;2083463;28;19933;-49
2023/04/09 03:58:23;;;;;;;;;;;;;;;17.24;54.94;98897.63;2084022;28;19924;-46
2023/04/09 03:59:25;;;;;;;;;;;;;;;17.26;54.94;98900.94;2086479;28;19955;-48
2023/04/09 04:00:25;;;;;;;;;;;;;;;17.26;55.06;98900.13;2084843;28;20301;-49
2023/04/09 04:01:28;;;;;;;;;;;;;;;17.24;55.04;98899.47;2086301;28;19963;-46
2023/04/09 04:02:32;;;;;;;;;;;;;;;17.24;54.81;98896.78;2085148;28;19977;-50
2023/04/09 04:03:33;;;;;;;;;;;;;;;17.23;54.64;98906.69;2084209;28;20403;-50
2023/04/09 04:04:34;;;;;;;;;;;;;;;17.25;54.89;98901.16;2082759;28;19990;-46
2023/04/09 04:05:35;;;;;;;;;;;;;;;17.24;55.15;98896.78;2084538;28;19990;-49
2023/04/09 04:06:36;;;;;;;;;;;;;;;17.22;55.04;98907.72;2087159;28;19932;-46
2023/04/09 04:07:37;;;;;;;;;;;;;;;17.24;54.95;98907.53;2091030;28;20463;-48
2023/04/09 04:08:38;;;;;;;;;;;;;;;17.24;54.97;98907.53;2089364;28;19928;-49
2023/04/09 04:09:39;;;;;;;;;;;;;;;17.22;54.90;98906.88;2083654;28;19931;-48
2023/04/09 04:10:39;;;;;;;;;;;;;;;17.23;54.82;98908.56;2083511;28;20382;-48
2023/04/09 04:11:41;;;;;;;;;;;;;;;17.23;55.08;98908.56;2087043;28;19932;-48
2023/04/09 04:12:41;;;;;;;;;;;;;;;17.24;54.85;98907.53;2083807;28;19928;-49
2023/04/09 04:13:43;;;;;;;;;;;;;;;17.22;54.88;98904.19;2080991;28;19933;-49
2023/04/09 04:14:43;;;;;;;;;;;;;;;17.22;54.88;98904.19;2082933;28;19932;-48
2023/04/09 04:15:45;;;;;;;;;;;;;;;17.24;54.85;98920.94;2083313;28;19936;-46
2023/04/09 04:16:46;;;;;;;;;;;;;;;17.22;54.99;98914.91;2088030;28;19929;-48
2023/04/09 04:17:48;;;;;;;;;;;;;;;17.20;54.98;98910.59;2086495;28;19936;-48
2023/04/09 04:18:48;;;;;;;;;;;;;;;17.19;54.81;98916.16;2086747;28;19967;-49
2023/04/09 04:19:50;;;;;;;;;;;;;;;17.19;54.92;98914.28;2083288;28;19950;-50
2023/04/09 04:20:50;;;;;;;;;;;;;;;17.18;54.90;98907.25;2084306;28;19937;-48
2023/04/09 04:21:52;;;;;;;;;;;;;;;17.20;54.87;98907.06;2085268;28;19936;-50
2023/04/09 04:22:52;;;;;;;;;;;;;;;17.18;54.97;98909.94;2086440;28;19974;-48
2023/04/09 04:23:53;;;;;;;;;;;;;;;17.18;55.11;98904.56;2087209;28;19951;-49
2023/04/09 04:24:54;;;;;;;;;;;;;;;17.18;54.92;98904.56;2084126;28;20421;-50
2023/04/09 04:25:56;;;;;;;;;;;;;;;17.17;54.97;98908.28;2085436;28;19936;-46
2023/04/09 04:26:57;;;;;;;;;;;;;;;17.17;54.95;98916.31;2082436;28;19964;-46
2023/04/09 04:27:58;;;;;;;;;;;;;;;17.19;55.13;98913.47;2083854;28;20371;-47
2023/04/09 04:28:59;;;;;;;;;;;;;;;17.18;54.77;98914.47;2080590;28;22548;-45
2023/04/09 04:30:00;;;;;;;;;;;;;;;17.18;54.82;98917.97;2083588;28;19993;-46
2023/04/09 04:31:01;;;;;;;;;;;;;;;17.16;54.90;98912.00;2081283;28;19981;-49
2023/04/09 04:32:04;;;;;;;;;;;;;;;17.17;55.01;98913.63;2080669;28;20030;-48
2023/04/09 04:33:04;;;;;;;;;;;;;;;17.17;54.98;98919.00;2082557;28;19973;-47
2023/04/09 04:34:06;;;;;;;;;;;;;;;17.16;55.08;98921.84;2084874;28;20286;-48
2023/04/09 04:35:07;;;;;;;;;;;;;;;17.18;54.88;98919.81;2087120;28;20172;-50
2023/04/09 04:36:09;;;;;;;;;;;;;;;17.17;54.82;98919.00;2086237;28;19937;-46
2023/04/09 04:37:12;;;;;;;;;;;;;;;17.17;55.06;98920.84;2087624;28;20037;-48
2023/04/09 04:38:13;;;;;;;;;;;;;;;17.17;54.93;98924.34;2087803;28;19929;-47
2023/04/09 04:39:14;;;;;;;;;;;;;;;17.17;54.88;98919.00;2086465;28;19928;-49
2023/04/09 04:40:15;;;;;;;;;;;;;;;17.16;55.03;98922.72;2080206;28;20675;-51
2023/04/09 04:41:16;;;;;;;;;;;;;;;17.15;54.94;98923.72;2083059;28;20939;-46
2023/04/09 04:42:17;;;;;;;;;;;;;;;17.16;54.78;98921.84;2088847;28;19936;-48
2023/04/09 04:43:18;;;;;;;;;;;;;;;17.15;54.65;98925.56;2083859;28;19965;-46
2023/04/09 04:44:19;;;;;;;;;;;;;;;17.14;54.84;98927.41;2085038;28;19928;-46
2023/04/09 04:45:20;;;;;;;;;;;;;;;17.14;55.04;98918.56;2085987;28;19928;-47
2023/04/09 04:46:21;;;;;;;;;;;;;;;17.13;54.95;98922.22;2084871;28;19932;-47
2023/04/09 04:47:23;;;;;;;;;;;;;;;17.13;54.98;98919.56;2079112;28;19997;-48
2023/04/09 04:48:24;;;;;;;;;;;;;;;17.13;55.08;98916.88;2081062;28;20387;-47
2023/04/09 04:49:25;;;;;;;;;;;;;;;17.11;54.97;98919.75;2085976;28;19932;-47
2023/04/09 04:50:26;;;;;;;;;;;;;;;17.14;54.99;98924.72;2086118;28;20280;-51
2023/04/09 04:51:30;;;;;;;;;;;;;;;17.14;54.79;98924.72;2087285;28;19932;-46
2023/04/09 04:52:31;;;;;;;;;;;;;;;17.14;54.72;98930.09;2086990;28;20910;-47
2023/04/09 04:53:32;;;;;;;;;;;;;;;17.15;54.79;98922.88;2088271;28;20001;-47
2023/04/09 04:54:33;;;;;;;;;;;;;;;17.13;54.88;98927.59;2089626;28;20078;-45
2023/04/09 04:55:34;;;;;;;;;;;;;;;17.13;54.63;98928.44;2081988;28;19928;-48
2023/04/09 04:56:36;;;;;;;;;;;;;;;17.12;54.75;98925.94;2084112;28;19931;-49
2023/04/09 04:57:36;;;;;;;;;;;;;;;17.13;54.99;98932.94;2081069;28;19928;-47
2023/04/09 04:58:38;;;;;;;;;;;;;;;17.12;54.91;98932.13;2080820;28;20474;-45
2023/04/09 04:59:38;;;;;;;;;;;;;;;17.10;54.90;98931.47;2085829;28;20332;-46
2023/04/09 05:00:40;;;;;;;;;;;;;;;17.10;55.00;98933.31;2086636;28;19928;-45
2023/04/09 05:01:40;;;;;;;;;;;;;;;17.08;54.91;98933.53;2088541;28;20324;-47
2023/04/09 05:02:43;;;;;;;;;;;;;;;17.09;54.94;98932.50;2086041;28;19929;-49
2023/04/09 05:03:43;;;;;;;;;;;;;;;17.10;54.87;98936.00;2085227;28;19929;-47
2023/04/09 05:04:45;;;;;;;;;;;;;;;17.11;54.97;98937.69;2085273;28;19928;-49
2023/04/09 05:05:45;;;;;;;;;;;;;;;17.08;54.82;98936.22;2084146;28;21122;-50
2023/04/09 05:06:47;;;;;;;;;;;;;;;17.08;54.91;98936.22;2087423;28;20230;-45
2023/04/09 05:07:47;;;;;;;;;;;;;;;17.10;55.07;98939.50;2086651;28;19958;-45
2023/04/09 05:08:49;;;;;;;;;;;;;;;17.09;54.92;98937.88;2087828;28;19954;-45
2023/04/09 05:09:49;;;;;;;;;;;;;;;17.07;54.93;98945.25;2088423;28;20960;-46
2023/04/09 05:10:54;;;;;;;;;;;;;;;17.07;54.94;98945.25;2082868;28;19937;-45
2023/04/09 05:11:56;;;;;;;;;;;;;;;17.08;54.85;98938.88;2081994;28;20382;-45
2023/04/09 05:12:57;;;;;;;;;;;;;;;17.07;54.90;98947.94;2084365;28;20106;-45
2023/04/09 05:13:57;;;;;;;;;;;;;;;17.07;54.97;98947.94;2083217;28;19987;-45
2023/04/09 05:14:59;;;;;;;;;;;;;;;17.06;54.97;98946.28;2085847;28;20975;-46
2023/04/09 05:15:59;;;;;;;;;;;;;;;17.07;55.00;98955.13;2083476;28;19928;-45
2023/04/09 05:17:01;;;;;;;;;;;;;;;17.07;54.92;98947.09;2078694;28;20379;-46
2023/04/09 05:18:02;;;;;;;;;;;;;;;17.07;54.71;98944.41;2082533;28;19925;-45
2023/04/09 05:19:04;;;;;;;;;;;;;;;17.07;54.94;98953.28;2079514;28;19929;-45
2023/04/09 05:20:05;;;;;;;;;;;;;;;17.06;54.67;98943.59;2081459;28;19977;-45
2023/04/09 05:21:07;;;;;;;;;;;;;;;17.06;54.91;98945.44;2083404;28;19936;-53
2023/04/09 05:22:07;;;;;;;;;;;;;;;17.06;54.87;98948.13;2081364;28;20086;-45
2023/04/09 05:23:11;;;;;;;;;;;;;;;17.06;54.95;98954.31;2081060;28;21708;-45